createdAt,value
2023-05-04T00:01:38.114Z,96193.16
2023-05-04T00:03:41.027Z,96311.94
2023-05-04T00:05:43.966Z,96272.41
2023-05-04T00:07:46.688Z,96362.22
2023-05-04T00:09:50.685Z,96207.78
2023-05-04T00:11:53.468Z,96314.34
2023-05-04T00:13:56.205Z,96305.34
2023-05-04T00:16:00.352Z,96320.06
2023-05-04T00:18:03.103Z,96309.78
2023-05-04T00:20:07.247Z,96308.81
2023-05-04T00:22:10.263Z,96213.94
2023-05-04T00:24:12.998Z,96302.09
2023-05-04T00:26:19.701Z,96158.97
2023-05-04T00:28:23.794Z,96138.34
2023-05-04T00:30:26.518Z,96253.00
2023-05-04T00:32:31.896Z,96299.94
2023-05-04T00:34:35.024Z,96316.78
2023-05-04T00:36:37.838Z,96300.19
2023-05-04T00:38:49.336Z,96287.47
2023-05-04T00:40:52.147Z,95935.75
2023-05-04T00:42:54.927Z,96096.06
2023-05-04T00:44:57.697Z,96290.34
2023-05-04T00:47:00.628Z,96224.16
2023-05-04T00:49:05.516Z,96259.38
2023-05-04T00:51:09.861Z,96283.69
2023-05-04T00:53:12.814Z,96148.13
2023-05-04T00:55:16.510Z,96279.22
2023-05-04T00:57:19.501Z,96247.97
2023-05-04T00:59:24.668Z,96281.72
2023-05-04T01:01:28.671Z,96117.69
2023-05-04T01:03:32.664Z,96206.31
2023-05-04T01:05:43.993Z,96283.84
2023-05-04T01:07:58.418Z,95992.53
2023-05-04T01:10:06.018Z,96221.75
2023-05-04T01:12:12.297Z,96291.19
2023-05-04T01:14:16.406Z,96186.22
2023-05-04T01:16:19.641Z,96283.59
2023-05-04T01:18:23.337Z,96288.81
2023-05-04T01:20:26.109Z,96269.59
2023-05-04T01:22:30.523Z,96271.38
2023-05-04T01:24:33.982Z,96292.31
2023-05-04T01:26:41.654Z,96241.41
2023-05-04T01:28:50.357Z,96295.31
2023-05-04T01:30:58.249Z,96290.88
2023-05-04T01:33:01.891Z,96194.25
2023-05-04T01:35:05.739Z,96094.13
2023-05-04T01:37:09.585Z,96179.53
2023-05-04T01:39:13.717Z,96283.31
2023-05-04T01:41:16.625Z,96295.81
2023-05-04T01:43:19.341Z,96292.31
2023-05-04T01:45:22.502Z,96289.53
2023-05-04T01:47:25.360Z,96290.25
2023-05-04T01:49:28.203Z,96294.91
2023-05-04T01:51:30.911Z,96274.28
2023-05-04T01:53:33.622Z,96290.00
2023-05-04T01:55:37.760Z,96220.69
2023-05-04T01:57:40.493Z,96285.13
2023-05-04T01:59:43.375Z,96289.44
2023-05-04T02:01:46.110Z,96280.03
2023-05-04T02:03:48.935Z,96288.34
2023-05-04T02:05:51.729Z,96290.53
2023-05-04T02:07:54.422Z,96302.31
2023-05-04T02:09:57.131Z,96291.81
2023-05-04T02:12:02.618Z,96291.81
2023-05-04T02:14:05.451Z,96296.25
2023-05-04T02:16:08.685Z,96289.38
2023-05-04T02:18:11.548Z,96279.31
2023-05-04T02:20:15.152Z,96283.63
2023-05-04T02:22:21.787Z,96271.28
2023-05-04T02:24:24.468Z,96277.13
2023-05-04T02:26:27.173Z,96282.25
2023-05-04T02:28:31.268Z,96288.31
2023-05-04T02:30:33.955Z,96284.47
2023-05-04T02:32:37.329Z,96227.25
2023-05-04T02:34:40.216Z,96277.59
2023-05-04T02:36:43.975Z,96278.06
2023-05-04T02:38:46.662Z,96269.66
2023-05-04T02:40:49.497Z,96279.59
2023-05-04T02:42:52.324Z,96200.59
2023-05-04T02:44:56.402Z,96276.69
2023-05-04T02:46:59.195Z,96273.66
2023-05-04T02:49:01.970Z,96230.88
2023-05-04T02:51:05.116Z,96045.56
2023-05-04T02:53:07.911Z,96281.47
2023-05-04T02:55:11.283Z,96273.88
2023-05-04T02:57:14.039Z,96277.84
2023-05-04T02:59:16.866Z,96278.56
2023-05-04T03:01:21.054Z,96237.19
2023-05-04T03:03:23.958Z,96256.75
2023-05-04T03:05:26.741Z,96220.41
2023-05-04T03:07:29.559Z,96276.81
2023-05-04T03:09:33.433Z,96276.22
2023-05-04T03:11:36.281Z,96222.63
2023-05-04T03:13:39.100Z,96272.38
2023-05-04T03:15:41.919Z,96282.41
2023-05-04T03:17:46.155Z,96267.59
2023-05-04T03:19:48.994Z,96274.84
2023-05-04T03:21:51.846Z,96268.53
2023-05-04T03:23:55.340Z,96269.81
2023-05-04T03:25:58.136Z,96270.28
2023-05-04T03:28:00.953Z,96218.53
2023-05-04T03:30:04.188Z,96267.47
2023-05-04T03:32:07.751Z,96277.84
2023-05-04T03:34:14.737Z,96233.78
2023-05-04T03:36:17.987Z,96266.91
2023-05-04T03:38:21.146Z,96255.59
2023-05-04T03:40:24.391Z,96269.56
2023-05-04T03:42:29.316Z,96259.78
2023-05-04T03:44:32.117Z,96123.81
2023-05-04T03:46:35.034Z,96050.81
2023-05-04T03:48:38.104Z,96093.31
2023-05-04T03:50:44.490Z,96213.75
2023-05-04T03:52:47.233Z,96262.59
2023-05-04T03:54:50.006Z,96138.69
2023-05-04T03:56:53.228Z,96255.47
2023-05-04T03:58:56.039Z,96263.16
2023-05-04T04:01:03.511Z,96273.66
2023-05-04T04:03:06.544Z,95989.63
2023-05-04T04:05:09.858Z,96233.47
2023-05-04T04:07:16.439Z,96257.34
2023-05-04T04:09:19.231Z,96256.75
2023-05-04T04:11:21.974Z,96260.38
2023-05-04T04:13:24.785Z,96153.81
2023-05-04T04:15:27.798Z,96251.16
2023-05-04T04:17:30.602Z,96162.31
2023-05-04T04:19:33.339Z,96255.94
2023-05-04T04:21:36.194Z,96250.91
2023-05-04T04:23:40.333Z,96251.75
2023-05-04T04:25:44.524Z,96248.81
2023-05-04T04:27:47.387Z,96260.34
2023-05-04T04:29:50.112Z,96151.72
2023-05-04T04:31:52.945Z,96256.63
2023-05-04T04:33:56.104Z,96247.91
2023-05-04T04:35:58.886Z,96253.38
2023-05-04T04:38:03.781Z,96215.84
2023-05-04T04:40:10.337Z,96249.53
2023-05-04T04:42:13.480Z,96259.78
2023-05-04T04:44:16.235Z,96124.47
2023-05-04T04:46:19.209Z,96254.66
2023-05-04T04:48:23.587Z,96245.56
2023-05-04T04:50:26.306Z,96246.16
2023-05-04T04:52:29.164Z,96117.25
2023-05-04T04:54:31.876Z,96242.31
2023-05-04T04:56:36.025Z,96249.31
2023-05-04T04:58:39.109Z,95994.41
2023-05-04T05:00:41.998Z,96252.22
2023-05-04T05:02:44.889Z,96243.00
2023-05-04T05:04:47.828Z,96243.94
2023-05-04T05:06:51.617Z,96236.72
2023-05-04T05:08:54.391Z,96205.25
2023-05-04T05:10:57.334Z,95968.84
2023-05-04T05:13:02.275Z,96233.53
2023-05-04T05:15:06.081Z,96157.25
2023-05-04T05:17:10.298Z,96226.41
2023-05-04T05:19:13.159Z,96233.59
2023-05-04T05:21:15.910Z,96235.09
2023-05-04T05:23:18.717Z,96229.63
2023-05-04T05:25:21.743Z,96235.56
2023-05-04T05:27:24.497Z,96228.66
2023-05-04T05:29:28.588Z,96072.44
2023-05-04T05:31:31.891Z,96231.72
2023-05-04T05:33:34.770Z,96239.38
2023-05-04T05:35:37.655Z,96235.03
2023-05-04T05:37:40.563Z,96244.56
2023-05-04T05:39:43.356Z,96240.38
2023-05-04T05:41:46.140Z,96146.97
2023-05-04T05:43:48.974Z,96243.69
2023-05-04T05:45:53.484Z,96213.34
2023-05-04T05:47:56.401Z,96244.50
2023-05-04T05:49:59.190Z,96234.50
2023-05-04T05:52:02.003Z,96236.03
2023-05-04T05:54:04.907Z,96243.13
2023-05-04T05:56:08.012Z,96231.31
2023-05-04T05:58:10.768Z,96238.94
2023-05-04T06:00:15.074Z,96248.56
2023-05-04T06:02:19.363Z,96240.31
2023-05-04T06:04:22.202Z,96246.41
2023-05-04T06:06:24.952Z,96239.31
2023-05-04T06:08:27.755Z,96144.41
2023-05-04T06:10:31.047Z,96240.72
2023-05-04T06:12:33.817Z,96241.47
2023-05-04T06:14:36.569Z,96056.03
2023-05-04T06:16:39.609Z,96240.75
2023-05-04T06:18:43.731Z,96246.69
2023-05-04T06:20:46.621Z,96234.50
2023-05-04T06:22:49.368Z,96051.88
2023-05-04T06:24:53.992Z,96246.56
2023-05-04T06:26:59.786Z,96258.28
2023-05-04T06:29:02.678Z,96238.16
2023-05-04T06:31:05.521Z,96243.41
2023-05-04T06:33:08.349Z,96243.16
2023-05-04T06:35:13.726Z,96242.69
2023-05-04T06:37:16.542Z,96237.41
2023-05-04T06:39:19.335Z,96241.31
2023-05-04T06:41:22.135Z,96231.72
2023-05-04T06:43:24.931Z,96239.31
2023-05-04T06:45:27.753Z,96227.53
2023-05-04T06:47:32.154Z,96230.50
2023-05-04T06:49:35.710Z,96232.97
2023-05-04T06:51:40.011Z,96235.69
2023-05-04T06:53:42.895Z,96231.41
2023-05-04T06:55:45.953Z,96229.81
2023-05-04T06:57:48.679Z,96115.00
2023-05-04T06:59:52.515Z,96234.19
2023-05-04T07:01:55.299Z,96234.75
2023-05-04T07:03:58.949Z,96240.13
2023-05-04T07:06:01.806Z,96157.63
2023-05-04T07:08:06.356Z,96231.00
2023-05-04T07:10:10.505Z,96238.59
2023-05-04T07:12:13.278Z,96215.31
2023-05-04T07:14:16.528Z,96235.91
2023-05-04T07:16:19.470Z,96241.91
2023-05-04T07:18:22.843Z,96238.13
2023-05-04T07:20:26.400Z,96240.81
2023-05-04T07:22:29.874Z,96234.34
2023-05-04T07:24:33.976Z,96192.09
2023-05-04T07:26:36.792Z,96245.97
2023-05-04T07:28:39.767Z,96241.94
2023-05-04T07:30:42.567Z,96241.13
2023-05-04T07:32:45.683Z,96188.63
2023-05-04T07:34:48.516Z,96241.94
2023-05-04T07:36:51.256Z,96159.66
2023-05-04T07:38:54.197Z,96072.63
2023-05-04T07:40:58.346Z,96231.63
2023-05-04T07:43:01.171Z,96232.16
2023-05-04T07:45:04.397Z,96177.00
2023-05-04T07:47:07.199Z,96221.06
2023-05-04T07:49:09.971Z,96241.06
2023-05-04T07:51:16.288Z,96038.03
2023-05-04T07:53:20.678Z,96230.22
2023-05-04T07:55:23.802Z,96229.38
2023-05-04T07:57:28.204Z,96224.47
2023-05-04T07:59:31.172Z,96174.16
2023-05-04T08:01:33.979Z,96219.56
2023-05-04T08:03:36.803Z,96068.75
2023-05-04T08:05:39.602Z,96109.25
2023-05-04T08:07:42.416Z,96215.91
2023-05-04T08:09:45.212Z,96211.34
2023-05-04T08:11:48.560Z,96212.03
2023-05-04T08:13:52.770Z,96210.59
2023-05-04T08:15:57.678Z,96156.06
2023-05-04T08:18:00.493Z,96212.72
2023-05-04T08:20:04.246Z,96157.59
2023-05-04T08:22:07.106Z,96208.25
2023-05-04T08:24:09.928Z,96206.66
2023-05-04T08:26:12.696Z,96206.97
2023-05-04T08:28:15.541Z,96200.91
2023-05-04T08:30:19.771Z,96202.66
2023-05-04T08:32:22.568Z,96202.09
2023-05-04T08:34:25.743Z,96205.13
2023-05-04T08:36:28.511Z,96202.81
2023-05-04T08:38:31.371Z,96201.16
2023-05-04T08:40:34.993Z,96191.97
2023-05-04T08:42:37.928Z,96200.28
2023-05-04T08:44:42.691Z,96187.03
2023-05-04T08:46:52.348Z,96105.94
2023-05-04T08:48:55.175Z,96193.91
2023-05-04T08:50:59.580Z,96198.75
2023-05-04T08:53:03.991Z,96195.72
2023-05-04T08:55:08.213Z,96188.53
2023-05-04T08:57:11.850Z,96188.97
2023-05-04T08:59:22.886Z,96192.16
2023-05-04T09:01:26.424Z,96190.16
2023-05-04T09:03:31.586Z,96187.25
2023-05-04T09:05:35.372Z,96186.03
2023-05-04T09:07:38.139Z,96186.66
2023-05-04T09:09:41.516Z,96182.72
2023-05-04T09:11:44.670Z,96187.59
2023-05-04T09:13:48.607Z,96066.47
2023-05-04T09:15:56.204Z,96065.34
2023-05-04T09:18:00.627Z,96175.94
2023-05-04T09:20:05.564Z,96181.47
2023-05-04T09:22:15.661Z,96176.53
2023-05-04T09:24:27.768Z,96067.09
2023-05-04T09:26:31.427Z,96178.03
2023-05-04T09:28:39.249Z,96179.03
2023-05-04T09:30:42.106Z,96182.16
2023-05-04T09:32:48.523Z,96178.81
2023-05-04T09:34:52.676Z,96181.19
2023-05-04T09:37:01.612Z,96172.06
2023-05-04T09:39:11.495Z,96145.00
2023-05-04T09:41:14.496Z,96133.56
2023-05-04T09:43:17.397Z,96108.22
2023-05-04T09:45:20.341Z,96186.09
2023-05-04T09:47:23.336Z,96189.88
2023-05-04T09:49:33.359Z,96186.50
2023-05-04T09:51:36.817Z,96185.22
2023-05-04T09:53:42.008Z,96188.50
2023-05-04T09:55:47.287Z,96166.91
2023-05-04T09:57:51.177Z,96152.47
2023-05-04T09:59:56.246Z,96156.75
2023-05-04T10:02:07.484Z,96166.19
2023-05-04T10:04:17.326Z,96167.06
2023-05-04T10:06:21.141Z,96176.56
2023-05-04T10:08:24.480Z,96178.19
2023-05-04T10:10:28.792Z,96111.00
2023-05-04T10:12:31.630Z,96129.50
2023-05-04T10:14:36.105Z,96164.84
2023-05-04T10:16:50.320Z,96162.38
2023-05-04T10:19:19.258Z,96163.72
2023-05-04T10:21:31.336Z,96163.72
2023-05-04T10:24:06.634Z,96154.53
2023-05-04T10:26:34.163Z,96151.44
2023-05-04T10:28:46.606Z,96026.69
2023-05-04T10:30:49.434Z,96154.69
2023-05-04T10:32:57.617Z,96141.28
2023-05-04T10:35:08.208Z,96086.50
2023-05-04T10:37:17.811Z,96137.78
2023-05-04T10:39:21.526Z,96139.06
2023-05-04T10:41:25.653Z,96115.59
2023-05-04T10:43:29.986Z,96135.06
2023-05-04T10:45:37.541Z,96130.56
2023-05-04T10:47:41.202Z,96008.16
2023-05-04T10:49:44.058Z,96125.97
2023-05-04T10:51:49.618Z,96120.44
2023-05-04T10:53:53.294Z,96114.50
2023-05-04T10:55:56.091Z,96107.53
2023-05-04T10:58:00.275Z,96112.19
2023-05-04T11:00:04.405Z,96109.25
2023-05-04T11:02:07.958Z,96055.84
2023-05-04T11:04:20.192Z,96100.44
2023-05-04T11:06:24.457Z,96101.63
2023-05-04T11:08:28.182Z,96094.19
2023-05-04T11:10:31.230Z,96105.88
2023-05-04T11:12:34.099Z,96098.44
2023-05-04T11:14:42.385Z,96089.78
2023-05-04T11:16:45.369Z,96087.56
2023-05-04T11:18:48.514Z,96084.72
2023-05-04T11:20:51.258Z,95828.31
2023-05-04T11:22:54.642Z,96028.97
2023-05-04T11:24:57.623Z,96097.97
2023-05-04T11:27:01.194Z,96085.78
2023-05-04T11:29:13.598Z,96039.88
2023-05-04T11:31:18.875Z,96079.63
2023-05-04T11:33:21.729Z,96070.97
2023-05-04T11:35:24.991Z,96068.59
2023-05-04T11:37:29.869Z,96072.69
2023-05-04T11:39:33.451Z,96071.97
2023-05-04T11:41:36.486Z,95989.72
2023-05-04T11:43:42.103Z,95912.06
2023-05-04T11:45:48.385Z,96083.44
2023-05-04T11:47:53.415Z,96072.41
2023-05-04T11:49:56.668Z,96071.81
2023-05-04T11:52:06.974Z,96044.63
2023-05-04T11:54:20.735Z,96069.72
2023-05-04T11:56:24.281Z,95724.56
2023-05-04T11:58:28.539Z,96062.72
2023-05-04T12:00:42.067Z,96053.81
2023-05-04T12:02:45.021Z,96062.63
2023-05-04T12:04:49.332Z,96060.75
2023-05-04T12:06:52.175Z,96063.94
2023-05-04T12:09:03.130Z,96065.28
2023-05-04T12:11:13.839Z,96063.34
2023-05-04T12:13:17.702Z,96054.16
2023-05-04T12:15:29.129Z,96060.13
2023-05-04T12:17:41.336Z,96010.03
2023-05-04T12:19:57.608Z,96053.53
2023-05-04T12:22:02.276Z,96099.22
2023-05-04T12:24:10.958Z,96055.91
2023-05-04T12:26:15.747Z,96051.63
2023-05-04T12:28:20.801Z,96038.81
2023-05-04T12:30:23.613Z,96040.50
2023-05-04T12:32:26.482Z,96032.84
2023-05-04T12:34:29.257Z,96048.22
2023-05-04T12:36:33.504Z,96037.38
2023-05-04T12:38:37.504Z,96024.09
2023-05-04T12:40:40.332Z,95871.25
2023-05-04T12:42:43.305Z,96033.38
2023-05-04T12:44:46.333Z,96026.44
2023-05-04T12:46:49.086Z,96025.94
2023-05-04T12:48:51.901Z,96022.88
2023-05-04T12:50:54.720Z,96025.16
2023-05-04T12:52:58.878Z,96019.13
2023-05-04T12:55:01.707Z,96011.97
2023-05-04T12:57:04.581Z,96009.47
2023-05-04T12:59:07.412Z,96000.50
2023-05-04T13:01:10.315Z,96001.63
2023-05-04T13:03:14.146Z,95999.41
2023-05-04T13:05:18.412Z,95992.06
2023-05-04T13:07:21.226Z,95953.34
2023-05-04T13:09:25.520Z,95995.22
2023-05-04T13:11:28.912Z,95993.44
2023-05-04T13:13:31.843Z,95987.75
2023-05-04T13:15:35.075Z,95994.75
2023-05-04T13:17:39.212Z,95995.44
2023-05-04T13:19:41.978Z,95991.53
2023-05-04T13:21:45.180Z,95988.06
2023-05-04T13:23:47.956Z,95979.38
2023-05-04T13:25:52.309Z,95994.19
2023-05-04T13:27:55.234Z,95978.09
2023-05-04T13:29:58.533Z,95964.84
2023-05-04T13:32:01.421Z,95969.19
2023-05-04T13:34:05.327Z,95903.28
2023-05-04T13:36:08.352Z,95972.91
2023-05-04T13:38:11.196Z,95958.84
2023-05-04T13:40:14.684Z,95964.44
2023-05-04T13:42:18.936Z,95966.47
2023-05-04T13:44:21.627Z,95960.63
2023-05-04T13:46:24.464Z,95957.34
2023-05-04T13:48:27.971Z,95956.81
2023-05-04T13:50:30.691Z,95948.97
2023-05-04T13:52:33.516Z,95862.75
2023-05-04T13:54:37.294Z,95945.94
2023-05-04T13:56:40.061Z,95937.28
2023-05-04T13:58:44.301Z,95930.88
2023-05-04T14:00:47.307Z,95924.13
2023-05-04T14:02:50.183Z,95930.53
2023-05-04T14:04:53.055Z,95922.09
2023-05-04T14:06:56.988Z,95924.25
2023-05-04T14:09:00.159Z,95914.06
2023-05-04T14:11:02.914Z,95904.06
2023-05-04T14:13:05.891Z,95909.84
2023-05-04T14:15:10.912Z,95913.28
2023-05-04T14:17:13.632Z,95908.75
2023-05-04T14:19:16.420Z,95912.25
2023-05-04T14:21:19.215Z,95906.16
2023-05-04T14:23:22.007Z,95896.38
2023-05-04T14:25:25.000Z,95895.13
2023-05-04T14:27:27.857Z,95895.84
2023-05-04T14:29:31.941Z,95890.16
2023-05-04T14:31:36.225Z,95883.16
2023-05-04T14:33:41.980Z,95881.59
2023-05-04T14:35:48.008Z,95878.03
2023-05-04T14:37:51.012Z,95881.09
2023-05-04T14:39:53.768Z,95879.94
2023-05-04T14:41:57.194Z,95851.78
2023-05-04T14:43:59.985Z,95862.41
2023-05-04T14:46:03.094Z,95849.00
2023-05-04T14:48:08.684Z,95873.94
2023-05-04T14:50:13.026Z,95868.00
2023-05-04T14:52:15.820Z,95805.63
2023-05-04T14:54:18.548Z,95863.16
2023-05-04T14:56:21.317Z,95794.41
2023-05-04T14:58:24.064Z,95861.97
2023-05-04T15:00:26.971Z,95857.44
2023-05-04T15:02:29.742Z,95866.72
2023-05-04T15:04:34.090Z,95856.97
2023-05-04T15:06:36.848Z,95854.84
2023-05-04T15:08:39.547Z,95857.41
2023-05-04T15:10:42.329Z,95852.09
2023-05-04T15:12:49.352Z,95805.53
2023-05-04T15:14:52.451Z,95865.41
2023-05-04T15:16:56.222Z,95832.09
2023-05-04T15:18:59.572Z,95853.59
2023-05-04T15:21:03.708Z,95865.06
2023-05-04T15:23:10.403Z,95863.44
2023-05-04T15:25:13.042Z,95863.69
2023-05-04T15:27:15.700Z,95847.56
2023-05-04T15:29:18.397Z,95846.69
2023-05-04T15:31:22.036Z,95859.66
2023-05-04T15:33:24.701Z,95852.88
2023-05-04T15:35:27.356Z,95855.38
2023-05-04T15:37:31.409Z,95853.34
2023-05-04T15:39:34.077Z,95854.19
2023-05-04T15:41:36.762Z,95843.84
2023-05-04T15:43:39.404Z,95852.41
2023-05-04T15:45:42.062Z,95826.34
2023-05-04T15:47:45.181Z,95850.41
2023-05-04T15:49:48.656Z,95840.41
2023-05-04T15:51:53.334Z,95839.34
2023-05-04T15:53:57.750Z,95837.22
2023-05-04T15:56:00.671Z,95838.56
2023-05-04T15:58:03.481Z,95847.78
2023-05-04T16:00:08.975Z,95838.19
2023-05-04T16:02:11.860Z,95842.16
2023-05-04T16:04:14.633Z,95837.06
2023-05-04T16:06:17.563Z,95835.56
2023-05-04T16:08:20.388Z,95835.56
2023-05-04T16:10:24.809Z,95828.81
2023-05-04T16:12:27.627Z,95826.38
2023-05-04T16:14:30.942Z,95826.66
2023-05-04T16:16:33.822Z,95820.03
2023-05-04T16:18:38.051Z,95824.03
2023-05-04T16:20:40.798Z,95789.03
2023-05-04T16:22:43.540Z,95614.91
2023-05-04T16:24:46.559Z,95823.25
2023-05-04T16:26:51.613Z,95825.25
2023-05-04T16:28:54.355Z,95820.44
2023-05-04T16:30:58.270Z,95824.81
2023-05-04T16:33:01.488Z,95824.81
2023-05-04T16:35:04.422Z,95824.00
2023-05-04T16:37:08.410Z,95818.22
2023-05-04T16:39:13.620Z,95819.03
2023-05-04T16:41:18.375Z,95770.22
2023-05-04T16:43:22.475Z,95815.53
2023-05-04T16:45:28.661Z,95723.91
2023-05-04T16:47:31.405Z,95820.06
2023-05-04T16:49:34.293Z,95809.69
2023-05-04T16:51:38.054Z,95738.97
2023-05-04T16:53:40.845Z,95804.81
2023-05-04T16:55:43.584Z,95814.47
2023-05-04T16:57:46.369Z,95812.47
2023-05-04T16:59:50.478Z,95810.91
2023-05-04T17:01:53.283Z,95727.88
2023-05-04T17:03:56.214Z,95769.19
2023-05-04T17:05:58.979Z,95807.78
2023-05-04T17:08:01.724Z,95805.00
2023-05-04T17:10:04.668Z,95737.81
2023-05-04T17:12:07.880Z,95801.75
2023-05-04T17:14:10.904Z,95796.88
2023-05-04T17:16:15.096Z,95804.81
2023-05-04T17:18:17.858Z,95802.38
2023-05-04T17:20:21.744Z,95798.78
2023-05-04T17:22:25.288Z,95788.84
2023-05-04T17:24:28.367Z,95686.31
2023-05-04T17:26:31.627Z,95724.81
2023-05-04T17:28:34.412Z,95767.00
2023-05-04T17:30:38.061Z,95733.97
2023-05-04T17:32:42.329Z,95797.66
2023-05-04T17:34:45.142Z,95758.84
2023-05-04T17:36:47.818Z,95806.97
2023-05-04T17:38:50.526Z,95810.13
2023-05-04T17:40:53.317Z,95804.56
2023-05-04T17:42:56.155Z,95801.22
2023-05-04T17:44:58.827Z,95804.16
2023-05-04T17:47:01.605Z,95788.53
2023-05-04T17:49:05.825Z,95717.50
2023-05-04T17:51:09.580Z,95798.81
2023-05-04T17:53:12.314Z,95803.91
2023-05-04T17:55:16.076Z,95808.56
2023-05-04T17:57:18.794Z,95812.97
2023-05-04T17:59:21.638Z,95804.97
2023-05-04T18:01:24.389Z,95806.34
2023-05-04T18:03:27.306Z,95818.56
2023-05-04T18:05:32.113Z,95819.91
2023-05-04T18:07:35.009Z,95721.56
2023-05-04T18:09:37.762Z,95816.75
2023-05-04T18:11:40.657Z,95755.19
2023-05-04T18:13:43.496Z,95820.06
2023-05-04T18:15:46.350Z,95828.88
2023-05-04T18:17:50.705Z,95846.91
2023-05-04T18:19:53.680Z,95770.66
2023-05-04T18:21:57.840Z,95835.97
2023-05-04T18:24:00.687Z,95786.28
2023-05-04T18:26:04.031Z,95715.56
2023-05-04T18:28:07.745Z,95750.50
2023-05-04T18:30:11.527Z,95752.94
2023-05-04T18:32:14.285Z,95702.72
2023-05-04T18:34:17.235Z,95849.56
2023-05-04T18:36:20.398Z,95850.81
2023-05-04T18:38:26.240Z,95702.50
2023-05-04T18:40:29.142Z,95855.56
2023-05-04T18:42:31.950Z,95866.06
2023-05-04T18:44:34.757Z,95832.84
2023-05-04T18:46:37.763Z,95858.09
2023-05-04T18:48:40.604Z,95855.63
2023-05-04T18:50:50.686Z,95867.91
2023-05-04T18:52:54.059Z,95862.28
2023-05-04T18:54:58.144Z,95872.94
2023-05-04T18:57:01.007Z,95880.88
2023-05-04T18:59:05.908Z,95869.00
2023-05-04T19:01:08.673Z,95869.06
2023-05-04T19:03:11.413Z,95885.34
2023-05-04T19:05:14.940Z,95879.72
2023-05-04T19:07:18.255Z,95882.63
2023-05-04T19:09:21.087Z,95840.25
2023-05-04T19:11:25.384Z,95890.56
2023-05-04T19:13:28.211Z,95884.63
2023-05-04T19:15:33.408Z,95894.75
2023-05-04T19:17:36.169Z,95892.50
2023-05-04T19:19:39.056Z,95897.47
2023-05-04T19:21:42.769Z,95908.69
2023-05-04T19:23:45.659Z,95784.19
2023-05-04T19:25:48.345Z,95820.34
2023-05-04T19:27:52.421Z,95899.22
2023-05-04T19:29:56.082Z,95904.94
2023-05-04T19:32:01.278Z,95909.59
2023-05-04T19:34:08.517Z,95897.88
2023-05-04T19:36:11.292Z,95905.41
2023-05-04T19:38:13.957Z,95913.56
2023-05-04T19:40:16.692Z,95603.09
2023-05-04T19:42:19.378Z,95918.16
2023-05-04T19:44:23.437Z,95882.00
2023-05-04T19:46:26.695Z,95919.03
2023-05-04T19:48:29.550Z,95914.28
2023-05-04T19:50:32.357Z,95918.06
2023-05-04T19:52:36.253Z,95915.72
2023-05-04T19:54:41.161Z,95919.44
2023-05-04T19:56:43.900Z,95879.00
2023-05-04T19:58:46.643Z,95920.28
2023-05-04T20:00:50.773Z,95917.56
2023-05-04T20:02:53.625Z,95916.47
2023-05-04T20:04:56.866Z,95921.03
2023-05-04T20:06:59.571Z,95931.75
2023-05-04T20:09:02.298Z,95932.19
2023-05-04T20:11:05.053Z,95926.84
2023-05-04T20:13:07.801Z,95774.66
2023-05-04T20:15:10.949Z,95919.84
2023-05-04T20:17:15.642Z,95907.41
2023-05-04T20:19:18.568Z,95901.66
2023-05-04T20:21:21.401Z,95932.59
2023-05-04T20:23:24.139Z,95931.47
2023-05-04T20:25:27.638Z,95935.31
2023-05-04T20:27:30.363Z,95931.59
2023-05-04T20:29:33.694Z,95821.38
2023-05-04T20:31:36.523Z,95931.94
2023-05-04T20:33:40.598Z,95935.16
2023-05-04T20:35:44.094Z,95784.31
2023-05-04T20:37:47.660Z,95889.41
2023-05-04T20:39:52.385Z,95939.94
2023-05-04T20:41:55.253Z,95936.84
2023-05-04T20:43:58.059Z,95835.78
2023-05-04T20:46:01.023Z,95945.16
2023-05-04T20:48:04.426Z,95934.34
2023-05-04T20:50:11.981Z,95937.81
2023-05-04T20:52:14.881Z,95931.50
2023-05-04T20:54:17.663Z,95927.38
2023-05-04T20:56:20.445Z,95927.13
2023-05-04T20:58:23.244Z,95924.09
2023-05-04T21:00:26.352Z,95807.22
2023-05-04T21:02:29.313Z,95851.81
2023-05-04T21:04:32.262Z,95932.97
2023-05-04T21:06:36.499Z,95927.66
2023-05-04T21:08:39.297Z,95893.81
2023-05-04T21:10:42.329Z,95857.31
2023-05-04T21:12:45.128Z,95935.53
2023-05-04T21:14:47.880Z,95927.84
2023-05-04T21:16:50.781Z,95925.63
2023-05-04T21:18:53.744Z,95920.03
2023-05-04T21:20:56.583Z,95925.69
2023-05-04T21:23:01.175Z,95810.00
2023-05-04T21:25:04.125Z,95917.97
2023-05-04T21:27:07.373Z,95743.75
2023-05-04T21:29:13.713Z,95799.38
2023-05-04T21:31:16.512Z,95897.19
2023-05-04T21:33:19.330Z,95929.13
2023-05-04T21:35:22.285Z,95919.69
2023-05-04T21:37:25.406Z,95878.56
2023-05-04T21:39:29.750Z,95916.88
2023-05-04T21:41:32.531Z,95931.13
2023-05-04T21:43:35.347Z,95927.81
2023-05-04T21:45:38.118Z,95925.19
2023-05-04T21:47:40.928Z,95913.53
2023-05-04T21:49:43.746Z,95831.44
2023-05-04T21:51:46.530Z,95776.59
2023-05-04T21:53:49.456Z,95891.13
2023-05-04T21:55:53.607Z,95931.41
2023-05-04T21:57:56.398Z,95927.25
2023-05-04T21:59:59.172Z,95926.44
2023-05-04T22:02:03.334Z,95932.38
2023-05-04T22:04:07.254Z,95927.44
2023-05-04T22:06:10.451Z,95923.59
2023-05-04T22:08:13.190Z,95925.06
2023-05-04T22:10:15.943Z,95783.50
2023-05-04T22:12:20.205Z,95926.72
2023-05-04T22:14:23.046Z,95928.28
2023-05-04T22:16:25.933Z,95924.84
2023-05-04T22:18:28.777Z,95922.75
2023-05-04T22:20:33.430Z,95938.66
2023-05-04T22:22:36.536Z,95864.50
2023-05-04T22:24:39.430Z,95870.78
2023-05-04T22:26:42.302Z,95939.72
2023-05-04T22:28:46.395Z,95936.25
2023-05-04T22:30:49.163Z,95900.34
2023-05-04T22:32:52.152Z,95933.03
2023-05-04T22:34:54.922Z,95940.63
2023-05-04T22:36:57.691Z,95824.56
2023-05-04T22:39:00.423Z,95928.63
2023-05-04T22:41:03.528Z,95759.44
2023-05-04T22:43:06.824Z,95844.84
2023-05-04T22:45:12.871Z,95945.47
2023-05-04T22:47:15.804Z,95950.78
2023-05-04T22:49:18.606Z,95853.19
2023-05-04T22:51:21.411Z,95902.69
2023-05-04T22:53:24.914Z,95741.13
2023-05-04T22:55:27.724Z,95500.47
2023-05-04T22:57:30.712Z,95897.38
2023-05-04T22:59:34.235Z,95958.34
2023-05-04T23:01:42.560Z,95936.13
2023-05-04T23:03:45.718Z,95891.44
2023-05-04T23:05:48.700Z,95900.19
2023-05-04T23:07:52.500Z,95963.75
2023-05-04T23:09:55.312Z,95965.22
2023-05-04T23:11:58.440Z,95825.41
2023-05-04T23:14:01.361Z,95975.47
2023-05-04T23:16:04.862Z,95873.47
2023-05-04T23:18:12.706Z,95839.38
2023-05-04T23:20:18.484Z,95780.13
2023-05-04T23:22:22.950Z,95978.13
2023-05-04T23:24:27.187Z,95972.09
2023-05-04T23:26:30.733Z,95971.56
2023-05-04T23:28:33.571Z,95971.56
2023-05-04T23:30:36.328Z,95963.44
2023-05-04T23:32:39.254Z,95966.09
2023-05-04T23:34:43.494Z,95936.09
2023-05-04T23:36:46.310Z,95968.81
2023-05-04T23:38:49.073Z,95967.44
2023-05-04T23:40:52.285Z,95855.31
2023-05-04T23:42:55.091Z,95974.09
2023-05-04T23:44:57.845Z,95972.41
2023-05-04T23:47:00.600Z,95969.66
2023-05-04T23:49:03.720Z,95808.47
2023-05-04T23:51:08.948Z,95776.03
2023-05-04T23:53:12.400Z,95710.31
2023-05-04T23:55:15.509Z,95965.53
2023-05-04T23:57:18.237Z,95962.84
2023-05-04T23:59:21.096Z,95959.31
